Terminal Aerodrome Forecast
Issued by NWS

Home | Current Version | Previous Version | Text Only | Print | Product List | Glossary Off
Versions: 1 2 3 4 5 6 7 8 9 10 11 12 13 14 15 16

219
FTUS43 KBIS 251128
TAFDIK
TAF
KDIK 251128Z 2512/2612 30009KT P6SM SCT020 BKN050
      TEMPO 2512/2514 BKN020
     FM251500 30010G16KT P6SM SCT050
     FM260100 28006KT P6SM SCT090
     FM260600 21004KT P6SM FEW110=

USA.gov is the U.S. government's official web portal to all federal, state and local government web resources and services.